sensor_id;sensor_type;location;lat;lon;timestamp;P1;durP1;ratioP1;P2;durP2;ratioP2
11677;SDS011;5895;41.950;24.372;2023-05-02T00:00:24;4.20;;;3.90;;
11677;SDS011;5895;41.950;24.372;2023-05-02T00:02:52;4.13;;;3.70;;
11677;SDS011;5895;41.950;24.372;2023-05-02T00:05:20;4.35;;;3.95;;
11677;SDS011;5895;41.950;24.372;2023-05-02T00:07:48;5.07;;;4.25;;
11677;SDS011;5895;41.950;24.372;2023-05-02T00:10:15;4.35;;;4.00;;
11677;SDS011;5895;41.950;24.372;2023-05-02T00:12:43;4.40;;;4.10;;
11677;SDS011;5895;41.950;24.372;2023-05-02T00:15:10;4.65;;;4.25;;
11677;SDS011;5895;41.950;24.372;2023-05-02T00:17:38;4.82;;;4.30;;
11677;SDS011;5895;41.950;24.372;2023-05-02T00:20:06;4.43;;;4.03;;
11677;SDS011;5895;41.950;24.372;2023-05-02T00:22:36;4.72;;;4.03;;
11677;SDS011;5895;41.950;24.372;2023-05-02T00:25:04;4.55;;;4.18;;
11677;SDS011;5895;41.950;24.372;2023-05-02T00:27:32;4.43;;;4.03;;
11677;SDS011;5895;41.950;24.372;2023-05-02T00:30:00;4.57;;;4.18;;
11677;SDS011;5895;41.950;24.372;2023-05-02T00:32:27;4.50;;;4.10;;
11677;SDS011;5895;41.950;24.372;2023-05-02T00:34:55;5.13;;;4.55;;
11677;SDS011;5895;41.950;24.372;2023-05-02T00:37:24;4.13;;;3.58;;
11677;SDS011;5895;41.950;24.372;2023-05-02T00:39:54;4.55;;;4.18;;
11677;SDS011;5895;41.950;24.372;2023-05-02T00:42:21;7.53;;;4.30;;
11677;SDS011;5895;41.950;24.372;2023-05-02T00:44:48;5.57;;;4.22;;
11677;SDS011;5895;41.950;24.372;2023-05-02T00:47:16;4.10;;;3.80;;
11677;SDS011;5895;41.950;24.372;2023-05-02T00:49:43;4.22;;;3.92;;
11677;SDS011;5895;41.950;24.372;2023-05-02T00:52:10;5.45;;;4.05;;
11677;SDS011;5895;41.950;24.372;2023-05-02T00:54:37;4.45;;;4.05;;
11677;SDS011;5895;41.950;24.372;2023-05-02T00:57:06;5.03;;;3.80;;
11677;SDS011;5895;41.950;24.372;2023-05-02T00:59:33;4.70;;;4.30;;
11677;SDS011;5895;41.950;24.372;2023-05-02T01:02:04;4.10;;;3.80;;
11677;SDS011;5895;41.950;24.372;2023-05-02T01:04:48;5.45;;;4.53;;
11677;SDS011;5895;41.950;24.372;2023-05-02T01:07:30;4.18;;;3.88;;
11677;SDS011;5895;41.950;24.372;2023-05-02T01:10:18;4.38;;;3.97;;
11677;SDS011;5895;41.950;24.372;2023-05-02T01:12:56;5.40;;;4.43;;
11677;SDS011;5895;41.950;24.372;2023-05-02T01:15:25;8.38;;;3.92;;
11677;SDS011;5895;41.950;24.372;2023-05-02T01:17:53;4.18;;;3.88;;
11677;SDS011;5895;41.950;24.372;2023-05-02T01:20:22;4.50;;;4.10;;
11677;SDS011;5895;41.950;24.372;2023-05-02T01:22:53;5.35;;;4.32;;
11677;SDS011;5895;41.950;24.372;2023-05-02T01:25:25;4.32;;;3.80;;
11677;SDS011;5895;41.950;24.372;2023-05-02T01:28:04;4.18;;;3.78;;
11677;SDS011;5895;41.950;24.372;2023-05-02T01:30:42;3.63;;;3.40;;
11677;SDS011;5895;41.950;24.372;2023-05-02T01:33:12;4.28;;;3.70;;
11677;SDS011;5895;41.950;24.372;2023-05-02T01:35:41;4.18;;;3.88;;
11677;SDS011;5895;41.950;24.372;2023-05-02T01:38:11;4.15;;;3.85;;
11677;SDS011;5895;41.950;24.372;2023-05-02T01:40:40;4.30;;;3.90;;
11677;SDS011;5895;41.950;24.372;2023-05-02T01:43:10;4.03;;;3.72;;
11677;SDS011;5895;41.950;24.372;2023-05-02T01:45:40;4.38;;;3.97;;
11677;SDS011;5895;41.950;24.372;2023-05-02T01:48:11;4.47;;;4.15;;
11677;SDS011;5895;41.950;24.372;2023-05-02T01:50:40;5.25;;;4.78;;
11677;SDS011;5895;41.950;24.372;2023-05-02T01:53:09;4.47;;;4.15;;
11677;SDS011;5895;41.950;24.372;2023-05-02T01:55:39;4.22;;;3.92;;
11677;SDS011;5895;41.950;24.372;2023-05-02T01:58:09;4.10;;;3.67;;
11677;SDS011;5895;41.950;24.372;2023-05-02T02:00:37;4.00;;;3.70;;
11677;SDS011;5895;41.950;24.372;2023-05-02T02:03:10;4.30;;;4.00;;
11677;SDS011;5895;41.950;24.372;2023-05-02T02:05:38;4.63;;;4.22;;
11677;SDS011;5895;41.950;24.372;2023-05-02T02:08:06;4.07;;;3.78;;
11677;SDS011;5895;41.950;24.372;2023-05-02T02:10:35;4.13;;;3.72;;
11677;SDS011;5895;41.950;24.372;2023-05-02T02:13:06;4.43;;;4.10;;
11677;SDS011;5895;41.950;24.372;2023-05-02T02:15:42;4.20;;;3.90;;
11677;SDS011;5895;41.950;24.372;2023-05-02T02:18:20;4.63;;;4.18;;
11677;SDS011;5895;41.950;24.372;2023-05-02T02:20:50;4.47;;;4.15;;
11677;SDS011;5895;41.950;24.372;2023-05-02T02:23:20;7.78;;;4.22;;
11677;SDS011;5895;41.950;24.372;2023-05-02T02:25:51;4.43;;;4.00;;
11677;SDS011;5895;41.950;24.372;2023-05-02T02:28:21;7.43;;;3.75;;
11677;SDS011;5895;41.950;24.372;2023-05-02T02:30:48;4.18;;;3.88;;
11677;SDS011;5895;41.950;24.372;2023-05-02T02:33:16;3.67;;;3.38;;
11677;SDS011;5895;41.950;24.372;2023-05-02T02:35:47;3.97;;;3.67;;
11677;SDS011;5895;41.950;24.372;2023-05-02T02:38:23;4.10;;;3.80;;
11677;SDS011;5895;41.950;24.372;2023-05-02T02:40:56;4.10;;;3.80;;
11677;SDS011;5895;41.950;24.372;2023-05-02T02:43:40;4.68;;;3.80;;
11677;SDS011;5895;41.950;24.372;2023-05-02T02:46:15;4.30;;;4.00;;
11677;SDS011;5895;41.950;24.372;2023-05-02T02:48:54;4.40;;;4.10;;
11677;SDS011;5895;41.950;24.372;2023-05-02T02:51:31;5.72;;;3.50;;
11677;SDS011;5895;41.950;24.372;2023-05-02T02:54:05;6.95;;;5.07;;
11677;SDS011;5895;41.950;24.372;2023-05-02T02:56:38;6.55;;;5.20;;
11677;SDS011;5895;41.950;24.372;2023-05-02T02:59:10;5.82;;;5.10;;
11677;SDS011;5895;41.950;24.372;2023-05-02T03:01:42;7.60;;;6.05;;
11677;SDS011;5895;41.950;24.372;2023-05-02T03:04:16;10.20;;;7.45;;
11677;SDS011;5895;41.950;24.372;2023-05-02T03:06:45;14.05;;;7.60;;
11677;SDS011;5895;41.950;24.372;2023-05-02T03:09:15;6.75;;;5.90;;
11677;SDS011;5895;41.950;24.372;2023-05-02T03:11:44;5.40;;;4.90;;
11677;SDS011;5895;41.950;24.372;2023-05-02T03:14:11;6.07;;;5.35;;
11677;SDS011;5895;41.950;24.372;2023-05-02T03:16:38;8.93;;;6.95;;
11677;SDS011;5895;41.950;24.372;2023-05-02T03:19:06;8.38;;;7.18;;
11677;SDS011;5895;41.950;24.372;2023-05-02T03:21:35;7.00;;;6.28;;
11677;SDS011;5895;41.950;24.372;2023-05-02T03:24:02;10.15;;;6.57;;
11677;SDS011;5895;41.950;24.372;2023-05-02T03:26:30;21.42;;;13.95;;
11677;SDS011;5895;41.950;24.372;2023-05-02T03:28:58;38.33;;;21.23;;
11677;SDS011;5895;41.950;24.372;2023-05-02T03:31:25;84.97;;;49.17;;
11677;SDS011;5895;41.950;24.372;2023-05-02T03:33:52;58.65;;;36.90;;
11677;SDS011;5895;41.950;24.372;2023-05-02T03:36:19;56.75;;;34.45;;
11677;SDS011;5895;41.950;24.372;2023-05-02T03:38:47;31.20;;;20.58;;
11677;SDS011;5895;41.950;24.372;2023-05-02T03:41:15;29.67;;;19.20;;
11677;SDS011;5895;41.950;24.372;2023-05-02T03:43:42;21.50;;;15.80;;
11677;SDS011;5895;41.950;24.372;2023-05-02T03:46:09;27.20;;;17.48;;
11677;SDS011;5895;41.950;24.372;2023-05-02T03:48:36;25.77;;;16.27;;
11677;SDS011;5895;41.950;24.372;2023-05-02T03:51:04;28.60;;;18.60;;
11677;SDS011;5895;41.950;24.372;2023-05-02T03:53:34;16.23;;;12.15;;
11677;SDS011;5895;41.950;24.372;2023-05-02T03:56:03;12.77;;;9.88;;
11677;SDS011;5895;41.950;24.372;2023-05-02T03:58:32;14.95;;;10.90;;
11677;SDS011;5895;41.950;24.372;2023-05-02T04:01:00;15.35;;;9.85;;
11677;SDS011;5895;41.950;24.372;2023-05-02T04:03:27;14.10;;;9.95;;
11677;SDS011;5895;41.950;24.372;2023-05-02T04:05:55;15.32;;;11.25;;
11677;SDS011;5895;41.950;24.372;2023-05-02T04:08:22;17.85;;;13.07;;
11677;SDS011;5895;41.950;24.372;2023-05-02T04:10:50;25.77;;;21.15;;
11677;SDS011;5895;41.950;24.372;2023-05-02T04:13:18;18.02;;;14.65;;
11677;SDS011;5895;41.950;24.372;2023-05-02T04:15:45;36.17;;;22.75;;
11677;SDS011;5895;41.950;24.372;2023-05-02T04:18:13;41.03;;;25.70;;
11677;SDS011;5895;41.950;24.372;2023-05-02T04:20:41;73.07;;;56.67;;
11677;SDS011;5895;41.950;24.372;2023-05-02T04:23:09;43.60;;;35.83;;
11677;SDS011;5895;41.950;24.372;2023-05-02T04:25:36;37.25;;;29.52;;
11677;SDS011;5895;41.950;24.372;2023-05-02T04:28:04;16.33;;;13.63;;
11677;SDS011;5895;41.950;24.372;2023-05-02T04:30:33;15.00;;;11.50;;
11677;SDS011;5895;41.950;24.372;2023-05-02T04:33:00;7.05;;;6.43;;
11677;SDS011;5895;41.950;24.372;2023-05-02T04:35:27;11.05;;;9.90;;
11677;SDS011;5895;41.950;24.372;2023-05-02T04:37:55;8.00;;;6.43;;
11677;SDS011;5895;41.950;24.372;2023-05-02T04:40:25;12.23;;;10.13;;
11677;SDS011;5895;41.950;24.372;2023-05-02T04:42:52;6.45;;;5.85;;
11677;SDS011;5895;41.950;24.372;2023-05-02T04:45:19;7.03;;;5.57;;
11677;SDS011;5895;41.950;24.372;2023-05-02T04:47:48;6.20;;;5.60;;
11677;SDS011;5895;41.950;24.372;2023-05-02T04:50:15;6.20;;;5.30;;
11677;SDS011;5895;41.950;24.372;2023-05-02T04:52:42;6.07;;;5.40;;
11677;SDS011;5895;41.950;24.372;2023-05-02T04:55:09;5.63;;;5.10;;
11677;SDS011;5895;41.950;24.372;2023-05-02T04:57:37;5.85;;;5.25;;
11677;SDS011;5895;41.950;24.372;2023-05-02T05:00:05;7.28;;;5.10;;
11677;SDS011;5895;41.950;24.372;2023-05-02T05:02:33;6.18;;;5.13;;
11677;SDS011;5895;41.950;24.372;2023-05-02T05:05:02;6.45;;;5.28;;
11677;SDS011;5895;41.950;24.372;2023-05-02T05:07:29;5.80;;;5.30;;
11677;SDS011;5895;41.950;24.372;2023-05-02T05:09:56;4.82;;;4.43;;
11677;SDS011;5895;41.950;24.372;2023-05-02T05:12:23;5.32;;;4.82;;
11677;SDS011;5895;41.950;24.372;2023-05-02T05:14:50;5.40;;;4.30;;
11677;SDS011;5895;41.950;24.372;2023-05-02T05:17:17;4.72;;;4.30;;
11677;SDS011;5895;41.950;24.372;2023-05-02T05:19:44;4.70;;;4.30;;
11677;SDS011;5895;41.950;24.372;2023-05-02T05:22:13;4.20;;;3.88;;
11677;SDS011;5895;41.950;24.372;2023-05-02T05:24:40;5.10;;;4.68;;
11677;SDS011;5895;41.950;24.372;2023-05-02T05:27:07;4.70;;;4.22;;
11677;SDS011;5895;41.950;24.372;2023-05-02T05:29:35;4.72;;;4.32;;
11677;SDS011;5895;41.950;24.372;2023-05-02T05:32:02;5.45;;;3.88;;
11677;SDS011;5895;41.950;24.372;2023-05-02T05:34:30;4.15;;;3.85;;
11677;SDS011;5895;41.950;24.372;2023-05-02T05:36:57;3.80;;;3.50;;
11677;SDS011;5895;41.950;24.372;2023-05-02T05:39:26;3.92;;;3.60;;
11677;SDS011;5895;41.950;24.372;2023-05-02T05:41:53;5.85;;;3.60;;
11677;SDS011;5895;41.950;24.372;2023-05-02T05:44:20;4.10;;;3.58;;
11677;SDS011;5895;41.950;24.372;2023-05-02T05:46:47;5.85;;;3.70;;
11677;SDS011;5895;41.950;24.372;2023-05-02T05:49:14;3.78;;;3.47;;
11677;SDS011;5895;41.950;24.372;2023-05-02T05:51:41;5.40;;;3.47;;
11677;SDS011;5895;41.950;24.372;2023-05-02T05:54:08;5.70;;;3.55;;
11677;SDS011;5895;41.950;24.372;2023-05-02T05:56:37;4.97;;;3.00;;
11677;SDS011;5895;41.950;24.372;2023-05-02T05:59:04;3.67;;;3.30;;
11677;SDS011;5895;41.950;24.372;2023-05-02T06:01:31;3.38;;;3.08;;
11677;SDS011;5895;41.950;24.372;2023-05-02T06:03:58;4.38;;;3.40;;
11677;SDS011;5895;41.950;24.372;2023-05-02T06:06:25;3.17;;;2.97;;
11677;SDS011;5895;41.950;24.372;2023-05-02T06:08:52;4.00;;;3.30;;
11677;SDS011;5895;41.950;24.372;2023-05-02T06:11:20;3.40;;;3.10;;
11677;SDS011;5895;41.950;24.372;2023-05-02T06:13:50;6.60;;;2.85;;
11677;SDS011;5895;41.950;24.372;2023-05-02T06:16:17;3.20;;;2.95;;
11677;SDS011;5895;41.950;24.372;2023-05-02T06:18:45;4.75;;;3.03;;
11677;SDS011;5895;41.950;24.372;2023-05-02T06:21:13;4.03;;;2.83;;
11677;SDS011;5895;41.950;24.372;2023-05-02T06:23:40;3.97;;;3.10;;
11677;SDS011;5895;41.950;24.372;2023-05-02T06:26:10;2.80;;;2.60;;
11677;SDS011;5895;41.950;24.372;2023-05-02T06:28:37;3.60;;;2.88;;
11677;SDS011;5895;41.950;24.372;2023-05-02T06:31:06;4.72;;;3.13;;
11677;SDS011;5895;41.950;24.372;2023-05-02T06:33:33;3.90;;;2.80;;
11677;SDS011;5895;41.950;24.372;2023-05-02T06:36:00;3.00;;;2.70;;
11677;SDS011;5895;41.950;24.372;2023-05-02T06:38:28;3.40;;;2.70;;
11677;SDS011;5895;41.950;24.372;2023-05-02T06:40:55;2.83;;;2.63;;
11677;SDS011;5895;41.950;24.372;2023-05-02T06:43:23;5.43;;;2.80;;
11677;SDS011;5895;41.950;24.372;2023-05-02T06:45:51;3.33;;;3.00;;
11677;SDS011;5895;41.950;24.372;2023-05-02T06:48:21;4.50;;;2.70;;
11677;SDS011;5895;41.950;24.372;2023-05-02T06:50:48;3.53;;;3.00;;
11677;SDS011;5895;41.950;24.372;2023-05-02T06:53:17;4.55;;;2.50;;
11677;SDS011;5895;41.950;24.372;2023-05-02T06:55:44;3.63;;;2.95;;
11677;SDS011;5895;41.950;24.372;2023-05-02T06:58:12;4.88;;;2.55;;
11677;SDS011;5895;41.950;24.372;2023-05-02T07:00:40;2.70;;;2.45;;
11677;SDS011;5895;41.950;24.372;2023-05-02T07:03:07;6.25;;;2.70;;
11677;SDS011;5895;41.950;24.372;2023-05-02T07:05:36;3.30;;;2.70;;
11677;SDS011;5895;41.950;24.372;2023-05-02T07:08:04;2.70;;;2.40;;
11677;SDS011;5895;41.950;24.372;2023-05-02T07:10:31;3.58;;;2.58;;
11677;SDS011;5895;41.950;24.372;2023-05-02T07:12:58;6.30;;;2.70;;
11677;SDS011;5895;41.950;24.372;2023-05-02T07:15:25;2.60;;;2.40;;
11677;SDS011;5895;41.950;24.372;2023-05-02T07:17:53;3.72;;;2.58;;
11677;SDS011;5895;41.950;24.372;2023-05-02T07:20:20;3.00;;;2.65;;
11677;SDS011;5895;41.950;24.372;2023-05-02T07:22:49;2.85;;;2.60;;
11677;SDS011;5895;41.950;24.372;2023-05-02T07:25:16;2.65;;;2.45;;
11677;SDS011;5895;41.950;24.372;2023-05-02T07:27:43;2.50;;;2.30;;
11677;SDS011;5895;41.950;24.372;2023-05-02T07:30:11;3.00;;;2.65;;
11677;SDS011;5895;41.950;24.372;2023-05-02T07:32:38;2.83;;;2.47;;
11677;SDS011;5895;41.950;24.372;2023-05-02T07:35:06;2.80;;;2.53;;
11677;SDS011;5895;41.950;24.372;2023-05-02T07:37:33;6.60;;;3.05;;
11677;SDS011;5895;41.950;24.372;2023-05-02T07:40:02;3.40;;;2.50;;
11677;SDS011;5895;41.950;24.372;2023-05-02T07:42:31;2.80;;;2.60;;
11677;SDS011;5895;41.950;24.372;2023-05-02T07:44:59;2.10;;;2.00;;
11677;SDS011;5895;41.950;24.372;2023-05-02T07:47:26;2.40;;;2.20;;
11677;SDS011;5895;41.950;24.372;2023-05-02T07:49:53;2.45;;;2.25;;
11677;SDS011;5895;41.950;24.372;2023-05-02T07:52:21;2.60;;;2.38;;
11677;SDS011;5895;41.950;24.372;2023-05-02T07:54:48;4.00;;;2.42;;
11677;SDS011;5895;41.950;24.372;2023-05-02T07:57:17;3.28;;;2.35;;
11677;SDS011;5895;41.950;24.372;2023-05-02T07:59:44;2.60;;;2.40;;
11677;SDS011;5895;41.950;24.372;2023-05-02T08:02:12;2.70;;;2.50;;
11677;SDS011;5895;41.950;24.372;2023-05-02T08:04:41;3.88;;;2.42;;
11677;SDS011;5895;41.950;24.372;2023-05-02T08:07:08;2.42;;;2.10;;
11677;SDS011;5895;41.950;24.372;2023-05-02T08:09:35;2.80;;;2.50;;
11677;SDS011;5895;41.950;24.372;2023-05-02T08:12:02;2.50;;;2.30;;
11677;SDS011;5895;41.950;24.372;2023-05-02T08:14:31;2.90;;;2.50;;
11677;SDS011;5895;41.950;24.372;2023-05-02T08:16:59;3.05;;;2.50;;
11677;SDS011;5895;41.950;24.372;2023-05-02T08:19:26;2.63;;;2.42;;
11677;SDS011;5895;41.950;24.372;2023-05-02T08:21:53;3.60;;;2.20;;
11677;SDS011;5895;41.950;24.372;2023-05-02T08:24:21;4.18;;;2.38;;
11677;SDS011;5895;41.950;24.372;2023-05-02T08:26:48;2.45;;;2.10;;
11677;SDS011;5895;41.950;24.372;2023-05-02T08:29:15;2.38;;;2.17;;
11677;SDS011;5895;41.950;24.372;2023-05-02T08:31:43;2.15;;;1.95;;
11677;SDS011;5895;41.950;24.372;2023-05-02T08:34:10;4.57;;;2.30;;
11677;SDS011;5895;41.950;24.372;2023-05-02T08:36:37;5.10;;;2.42;;
11677;SDS011;5895;41.950;24.372;2023-05-02T08:39:04;2.67;;;2.20;;
11677;SDS011;5895;41.950;24.372;2023-05-02T08:41:33;3.55;;;2.47;;
11677;SDS011;5895;41.950;24.372;2023-05-02T08:44:00;2.30;;;2.10;;
11677;SDS011;5895;41.950;24.372;2023-05-02T08:46:28;4.85;;;2.20;;
11677;SDS011;5895;41.950;24.372;2023-05-02T08:48:58;3.03;;;2.20;;
11677;SDS011;5895;41.950;24.372;2023-05-02T08:51:26;3.97;;;2.45;;
11677;SDS011;5895;41.950;24.372;2023-05-02T08:53:56;2.80;;;2.30;;
11677;SDS011;5895;41.950;24.372;2023-05-02T08:56:24;2.40;;;2.20;;
11677;SDS011;5895;41.950;24.372;2023-05-02T08:58:51;4.15;;;3.85;;
11677;SDS011;5895;41.950;24.372;2023-05-02T09:01:18;3.45;;;2.15;;
11677;SDS011;5895;41.950;24.372;2023-05-02T09:03:49;3.00;;;1.92;;
11677;SDS011;5895;41.950;24.372;2023-05-02T09:06:18;3.30;;;2.13;;
11677;SDS011;5895;41.950;24.372;2023-05-02T09:08:47;4.03;;;2.10;;
11677;SDS011;5895;41.950;24.372;2023-05-02T09:11:15;3.58;;;1.98;;
11677;SDS011;5895;41.950;24.372;2023-05-02T09:13:43;3.58;;;2.08;;
11677;SDS011;5895;41.950;24.372;2023-05-02T09:16:11;2.33;;;2.13;;
11677;SDS011;5895;41.950;24.372;2023-05-02T09:18:41;2.92;;;2.05;;
11677;SDS011;5895;41.950;24.372;2023-05-02T09:21:09;2.47;;;2.28;;
11677;SDS011;5895;41.950;24.372;2023-05-02T09:23:39;4.50;;;4.10;;
11677;SDS011;5895;41.950;24.372;2023-05-02T09:26:11;3.38;;;3.08;;
11677;SDS011;5895;41.950;24.372;2023-05-02T09:28:43;5.05;;;4.13;;
11677;SDS011;5895;41.950;24.372;2023-05-02T09:31:11;3.88;;;3.53;;
11677;SDS011;5895;41.950;24.372;2023-05-02T09:33:40;5.15;;;4.75;;
11677;SDS011;5895;41.950;24.372;2023-05-02T09:36:08;5.68;;;5.00;;
11677;SDS011;5895;41.950;24.372;2023-05-02T09:38:39;7.13;;;5.40;;
11677;SDS011;5895;41.950;24.372;2023-05-02T09:41:07;10.13;;;5.53;;
11677;SDS011;5895;41.950;24.372;2023-05-02T09:43:34;6.78;;;6.07;;
11677;SDS011;5895;41.950;24.372;2023-05-02T09:46:03;7.10;;;6.10;;
11677;SDS011;5895;41.950;24.372;2023-05-02T09:48:31;7.82;;;7.03;;
11677;SDS011;5895;41.950;24.372;2023-05-02T09:51:16;10.30;;;6.93;;
11677;SDS011;5895;41.950;24.372;2023-05-02T09:53:46;7.78;;;7.13;;
11677;SDS011;5895;41.950;24.372;2023-05-02T09:56:13;9.38;;;8.57;;
11677;SDS011;5895;41.950;24.372;2023-05-02T09:58:40;9.05;;;7.68;;
11677;SDS011;5895;41.950;24.372;2023-05-02T10:01:10;8.98;;;8.10;;
11677;SDS011;5895;41.950;24.372;2023-05-02T10:03:40;9.50;;;8.60;;
11677;SDS011;5895;41.950;24.372;2023-05-02T10:06:11;10.55;;;9.65;;
11677;SDS011;5895;41.950;24.372;2023-05-02T10:08:40;9.27;;;8.38;;
11677;SDS011;5895;41.950;24.372;2023-05-02T10:11:11;10.13;;;9.13;;
11677;SDS011;5895;41.950;24.372;2023-05-02T10:13:39;11.07;;;9.60;;
11677;SDS011;5895;41.950;24.372;2023-05-02T10:16:09;9.63;;;8.73;;
11677;SDS011;5895;41.950;24.372;2023-05-02T10:18:40;9.93;;;9.00;;
11677;SDS011;5895;41.950;24.372;2023-05-02T10:21:14;9.43;;;8.52;;
11677;SDS011;5895;41.950;24.372;2023-05-02T10:23:43;10.88;;;6.95;;
11677;SDS011;5895;41.950;24.372;2023-05-02T10:26:13;5.97;;;5.38;;
11677;SDS011;5895;41.950;24.372;2023-05-02T10:28:41;6.72;;;6.05;;
11677;SDS011;5895;41.950;24.372;2023-05-02T10:31:10;6.97;;;6.22;;
11677;SDS011;5895;41.950;24.372;2023-05-02T10:33:38;7.38;;;4.97;;
11677;SDS011;5895;41.950;24.372;2023-05-02T10:36:06;7.35;;;4.70;;
11677;SDS011;5895;41.950;24.372;2023-05-02T10:38:37;5.93;;;4.78;;
11677;SDS011;5895;41.950;24.372;2023-05-02T10:41:06;8.88;;;4.22;;
11677;SDS011;5895;41.950;24.372;2023-05-02T10:43:39;4.57;;;4.13;;
11677;SDS011;5895;41.950;24.372;2023-05-02T10:49:06;6.60;;;3.85;;
11677;SDS011;5895;41.950;24.372;2023-05-02T10:51:35;8.35;;;3.42;;
11677;SDS011;5895;41.950;24.372;2023-05-02T10:54:19;3.20;;;2.65;;
11677;SDS011;5895;41.950;24.372;2023-05-02T10:57:05;6.50;;;3.20;;
11677;SDS011;5895;41.950;24.372;2023-05-02T10:59:38;5.47;;;2.58;;
11677;SDS011;5895;41.950;24.372;2023-05-02T11:02:45;3.05;;;2.80;;
11677;SDS011;5895;41.950;24.372;2023-05-02T11:05:11;4.05;;;3.03;;
11677;SDS011;5895;41.950;24.372;2023-05-02T11:07:38;4.55;;;2.72;;
11677;SDS011;5895;41.950;24.372;2023-05-02T11:10:24;3.00;;;2.20;;
11677;SDS011;5895;41.950;24.372;2023-05-02T11:12:55;2.90;;;2.53;;
11677;SDS011;5895;41.950;24.372;2023-05-02T11:18:24;3.47;;;2.33;;
11677;SDS011;5895;41.950;24.372;2023-05-02T11:20:51;6.78;;;2.60;;
11677;SDS011;5895;41.950;24.372;2023-05-02T11:23:18;4.32;;;2.30;;
11677;SDS011;5895;41.950;24.372;2023-05-02T11:25:49;7.03;;;2.90;;
11677;SDS011;5895;41.950;24.372;2023-05-02T11:34:31;3.78;;;2.67;;
11677;SDS011;5895;41.950;24.372;2023-05-02T11:37:10;2.92;;;1.90;;
11677;SDS011;5895;41.950;24.372;2023-05-02T11:39:39;3.38;;;1.73;;
11677;SDS011;5895;41.950;24.372;2023-05-02T11:42:06;2.28;;;2.08;;
11677;SDS011;5895;41.950;24.372;2023-05-02T11:44:33;3.55;;;2.00;;
11677;SDS011;5895;41.950;24.372;2023-05-02T11:47:17;5.55;;;2.15;;
11677;SDS011;5895;41.950;24.372;2023-05-02T11:49:47;4.15;;;1.73;;
11677;SDS011;5895;41.950;24.372;2023-05-02T11:52:14;4.03;;;2.00;;
11677;SDS011;5895;41.950;24.372;2023-05-02T11:54:41;1.85;;;1.73;;
11677;SDS011;5895;41.950;24.372;2023-05-02T11:57:08;5.35;;;2.10;;
11677;SDS011;5895;41.950;24.372;2023-05-02T11:59:47;2.03;;;1.80;;
11677;SDS011;5895;41.950;24.372;2023-05-02T12:02:15;2.30;;;1.90;;
11677;SDS011;5895;41.950;24.372;2023-05-02T12:04:42;2.72;;;1.67;;
11677;SDS011;5895;41.950;24.372;2023-05-02T12:07:11;3.03;;;1.60;;
11677;SDS011;5895;41.950;24.372;2023-05-02T12:12:21;2.08;;;1.77;;
11677;SDS011;5895;41.950;24.372;2023-05-02T12:14:48;6.03;;;2.13;;
11677;SDS011;5895;41.950;24.372;2023-05-02T12:17:15;2.92;;;2.15;;
11677;SDS011;5895;41.950;24.372;2023-05-02T12:19:43;4.15;;;1.70;;
11677;SDS011;5895;41.950;24.372;2023-05-02T12:22:11;4.18;;;1.85;;
11677;SDS011;5895;41.950;24.372;2023-05-02T12:24:38;2.50;;;1.75;;
11677;SDS011;5895;41.950;24.372;2023-05-02T12:27:08;3.05;;;1.83;;
11677;SDS011;5895;41.950;24.372;2023-05-02T12:29:39;9.73;;;1.73;;
11677;SDS011;5895;41.950;24.372;2023-05-02T12:32:06;4.55;;;1.70;;
11677;SDS011;5895;41.950;24.372;2023-05-02T12:34:34;7.43;;;1.83;;
11677;SDS011;5895;41.950;24.372;2023-05-02T12:37:02;2.10;;;1.40;;
11677;SDS011;5895;41.950;24.372;2023-05-02T12:39:37;2.88;;;1.95;;
11677;SDS011;5895;41.950;24.372;2023-05-02T12:42:08;4.03;;;2.50;;
11677;SDS011;5895;41.950;24.372;2023-05-02T12:44:36;3.53;;;1.98;;
11677;SDS011;5895;41.950;24.372;2023-05-02T12:47:04;2.92;;;1.70;;
11677;SDS011;5895;41.950;24.372;2023-05-02T12:49:31;4.68;;;1.67;;
11677;SDS011;5895;41.950;24.372;2023-05-02T12:51:58;4.03;;;1.85;;
11677;SDS011;5895;41.950;24.372;2023-05-02T12:54:25;2.20;;;1.85;;
11677;SDS011;5895;41.950;24.372;2023-05-02T12:56:53;2.88;;;1.52;;
11677;SDS011;5895;41.950;24.372;2023-05-02T12:59:25;2.22;;;1.80;;
11677;SDS011;5895;41.950;24.372;2023-05-02T13:01:53;3.42;;;1.77;;
11677;SDS011;5895;41.950;24.372;2023-05-02T13:04:20;2.95;;;1.80;;
11677;SDS011;5895;41.950;24.372;2023-05-02T13:06:47;2.83;;;1.88;;
11677;SDS011;5895;41.950;24.372;2023-05-02T13:09:14;2.05;;;1.80;;
11677;SDS011;5895;41.950;24.372;2023-05-02T13:11:42;4.78;;;1.80;;
11677;SDS011;5895;41.950;24.372;2023-05-02T13:14:11;3.47;;;1.55;;
11677;SDS011;5895;41.950;24.372;2023-05-02T13:16:38;1.60;;;1.50;;
11677;SDS011;5895;41.950;24.372;2023-05-02T13:19:05;1.95;;;1.70;;
11677;SDS011;5895;41.950;24.372;2023-05-02T13:21:33;2.75;;;1.60;;
11677;SDS011;5895;41.950;24.372;2023-05-02T13:24:00;2.33;;;1.55;;
11677;SDS011;5895;41.950;24.372;2023-05-02T13:26:28;12.18;;;1.80;;
11677;SDS011;5895;41.950;24.372;2023-05-02T13:28:55;3.70;;;2.30;;
11677;SDS011;5895;41.950;24.372;2023-05-02T13:31:23;4.32;;;2.45;;
11677;SDS011;5895;41.950;24.372;2023-05-02T13:33:50;5.55;;;2.08;;
11677;SDS011;5895;41.950;24.372;2023-05-02T13:36:17;3.38;;;2.50;;
11677;SDS011;5895;41.950;24.372;2023-05-02T13:38:45;6.35;;;2.22;;
11677;SDS011;5895;41.950;24.372;2023-05-02T13:41:12;3.08;;;1.83;;
11677;SDS011;5895;41.950;24.372;2023-05-02T13:43:39;7.30;;;1.48;;
11677;SDS011;5895;41.950;24.372;2023-05-02T13:46:06;3.35;;;1.60;;
11677;SDS011;5895;41.950;24.372;2023-05-02T13:48:34;3.03;;;2.08;;
11677;SDS011;5895;41.950;24.372;2023-05-02T13:51:02;2.40;;;1.67;;
11677;SDS011;5895;41.950;24.372;2023-05-02T13:53:29;5.22;;;2.00;;
11677;SDS011;5895;41.950;24.372;2023-05-02T13:55:56;2.97;;;2.10;;
11677;SDS011;5895;41.950;24.372;2023-05-02T13:58:23;2.38;;;1.77;;
11677;SDS011;5895;41.950;24.372;2023-05-02T14:00:50;3.17;;;1.70;;
11677;SDS011;5895;41.950;24.372;2023-05-02T14:03:18;2.47;;;1.77;;
11677;SDS011;5895;41.950;24.372;2023-05-02T14:05:46;2.40;;;1.70;;
11677;SDS011;5895;41.950;24.372;2023-05-02T14:08:13;4.15;;;2.90;;
11677;SDS011;5895;41.950;24.372;2023-05-02T14:10:42;2.58;;;1.50;;
11677;SDS011;5895;41.950;24.372;2023-05-02T14:13:09;2.78;;;2.25;;
11677;SDS011;5895;41.950;24.372;2023-05-02T14:15:36;3.05;;;1.70;;
11677;SDS011;5895;41.950;24.372;2023-05-02T14:18:03;2.63;;;1.95;;
11677;SDS011;5895;41.950;24.372;2023-05-02T14:20:30;5.53;;;2.35;;
11677;SDS011;5895;41.950;24.372;2023-05-02T14:22:59;1.80;;;1.50;;
11677;SDS011;5895;41.950;24.372;2023-05-02T14:25:26;2.80;;;1.90;;
11677;SDS011;5895;41.950;24.372;2023-05-02T14:27:53;6.32;;;1.75;;
11677;SDS011;5895;41.950;24.372;2023-05-02T14:30:20;5.22;;;1.77;;
11677;SDS011;5895;41.950;24.372;2023-05-02T14:32:47;3.20;;;1.90;;
11677;SDS011;5895;41.950;24.372;2023-05-02T14:35:14;3.33;;;1.70;;
11677;SDS011;5895;41.950;24.372;2023-05-02T14:37:41;5.78;;;1.80;;
11677;SDS011;5895;41.950;24.372;2023-05-02T14:40:11;4.38;;;1.80;;
11677;SDS011;5895;41.950;24.372;2023-05-02T14:42:39;2.85;;;1.50;;
11677;SDS011;5895;41.950;24.372;2023-05-02T14:45:07;2.33;;;1.52;;
11677;SDS011;5895;41.950;24.372;2023-05-02T14:47:36;2.28;;;1.65;;
11677;SDS011;5895;41.950;24.372;2023-05-02T14:50:04;5.30;;;1.90;;
11677;SDS011;5895;41.950;24.372;2023-05-02T14:52:31;2.45;;;1.60;;
11677;SDS011;5895;41.950;24.372;2023-05-02T14:54:59;2.88;;;1.88;;
11677;SDS011;5895;41.950;24.372;2023-05-02T14:57:27;3.38;;;1.50;;
11677;SDS011;5895;41.950;24.372;2023-05-02T14:59:55;2.72;;;1.60;;
11677;SDS011;5895;41.950;24.372;2023-05-02T15:02:22;2.63;;;1.40;;
11677;SDS011;5895;41.950;24.372;2023-05-02T15:04:49;2.80;;;1.70;;
11677;SDS011;5895;41.950;24.372;2023-05-02T15:07:16;4.38;;;2.30;;
11677;SDS011;5895;41.950;24.372;2023-05-02T15:09:43;2.08;;;1.88;;